createdAt,value
2022-09-22T00:00:57.000Z,9.40
2022-09-22T00:03:23.375Z,9.40
2022-09-22T00:05:49.561Z,9.40
2022-09-22T00:08:15.854Z,9.30
2022-09-22T00:10:42.056Z,9.30
2022-09-22T00:13:08.777Z,9.40
2022-09-22T00:15:34.963Z,9.50
2022-09-22T00:18:01.136Z,9.50
2022-09-22T00:20:27.334Z,9.50
2022-09-22T00:22:53.769Z,9.50
2022-09-22T00:25:19.993Z,9.50
2022-09-22T00:27:46.647Z,9.50
2022-09-22T00:30:14.195Z,9.60
2022-09-22T00:32:40.372Z,9.50
2022-09-22T00:35:07.578Z,9.50
2022-09-22T00:37:33.765Z,9.50
2022-09-22T00:40:00.394Z,9.50
2022-09-22T00:42:27.363Z,9.50
2022-09-22T00:44:53.517Z,9.40
2022-09-22T00:47:52.844Z,9.40
2022-09-22T00:50:23.032Z,9.30
2022-09-22T00:53:09.602Z,9.20
2022-09-22T00:55:56.043Z,9.20
2022-09-22T00:58:26.327Z,9.20
2022-09-22T01:00:52.608Z,9.10
2022-09-22T01:03:20.793Z,9.10
2022-09-22T01:05:49.202Z,9.00
2022-09-22T01:08:15.421Z,9.00
2022-09-22T01:10:41.612Z,8.90
2022-09-22T01:17:48.986Z,8.90
2022-09-22T01:20:53.046Z,8.90
2022-09-22T01:25:08.608Z,9.10
2022-09-22T01:28:40.374Z,9.20
2022-09-22T01:32:53.474Z,9.20
2022-09-22T01:36:53.021Z,9.20
2022-09-22T01:39:23.354Z,9.10
2022-09-22T01:42:02.456Z,9.10
2022-09-22T01:44:34.996Z,9.00
2022-09-22T01:47:18.768Z,9.00
2022-09-22T01:49:58.626Z,9.00
2022-09-22T01:52:29.096Z,9.00
2022-09-22T01:55:00.625Z,8.90
2022-09-22T01:57:48.481Z,8.90
2022-09-22T02:00:14.770Z,8.80
2022-09-22T02:04:17.152Z,8.70
2022-09-22T02:06:48.548Z,8.60
2022-09-22T02:09:16.746Z,8.60
2022-09-22T02:11:42.978Z,8.70
2022-09-22T02:14:09.646Z,8.70
2022-09-22T02:16:35.817Z,8.70
2022-09-22T02:19:51.569Z,8.70
2022-09-22T02:22:17.761Z,8.60
2022-09-22T02:24:44.888Z,8.60
2022-09-22T02:27:26.769Z,8.60
2022-09-22T02:29:56.706Z,8.60
2022-09-22T02:32:22.949Z,8.50
2022-09-22T02:34:49.115Z,8.40
2022-09-22T02:38:40.529Z,8.30
2022-09-22T02:41:14.371Z,8.20
2022-09-22T02:43:54.087Z,8.10
2022-09-22T02:46:25.162Z,8.10
2022-09-22T02:48:55.648Z,8.00
2022-09-22T02:51:21.970Z,7.90
2022-09-22T02:53:48.182Z,7.80
2022-09-22T02:56:14.393Z,7.80
2022-09-22T02:58:40.571Z,7.70
2022-09-22T03:01:06.856Z,7.60
2022-09-22T03:03:33.407Z,7.50
2022-09-22T03:05:59.632Z,7.50
2022-09-22T03:08:25.865Z,7.50
2022-09-22T03:10:52.601Z,7.50
2022-09-22T03:13:19.235Z,7.50
2022-09-22T03:15:45.655Z,7.40
2022-09-22T03:18:12.691Z,7.20
2022-09-22T03:20:39.014Z,7.10
2022-09-22T03:23:05.273Z,7.10
2022-09-22T03:25:31.458Z,7.00
2022-09-22T03:27:57.598Z,6.90
2022-09-22T03:30:23.858Z,6.80
2022-09-22T03:32:50.362Z,6.80
2022-09-22T03:35:16.666Z,6.70
2022-09-22T03:37:42.810Z,6.60
2022-09-22T03:40:10.570Z,6.60
2022-09-22T03:42:36.752Z,6.60
2022-09-22T03:45:03.677Z,6.50
2022-09-22T03:47:30.045Z,6.50
2022-09-22T03:49:57.169Z,6.50
2022-09-22T03:52:23.496Z,6.50
2022-09-22T03:54:51.577Z,6.40
2022-09-22T03:57:17.751Z,6.40
2022-09-22T03:59:43.969Z,6.40
2022-09-22T04:02:10.244Z,6.50
2022-09-22T04:04:37.088Z,6.90
2022-09-22T04:07:07.094Z,7.10
2022-09-22T04:09:34.517Z,7.30
2022-09-22T04:12:00.986Z,7.50
2022-09-22T04:14:27.281Z,7.40
2022-09-22T04:16:53.588Z,7.40
2022-09-22T04:19:19.844Z,7.20
2022-09-22T04:21:46.506Z,7.10
2022-09-22T04:24:12.773Z,6.90
2022-09-22T04:26:56.566Z,6.80
2022-09-22T04:29:41.741Z,6.60
2022-09-22T04:32:07.899Z,6.50
2022-09-22T04:34:34.634Z,6.40
2022-09-22T04:37:02.277Z,6.40
2022-09-22T04:39:28.473Z,6.20
2022-09-22T04:41:54.864Z,6.20
2022-09-22T04:44:21.086Z,6.20
2022-09-22T04:46:48.630Z,6.30
2022-09-22T04:49:14.791Z,6.30
2022-09-22T04:51:41.256Z,6.40
2022-09-22T04:54:07.779Z,6.50
2022-09-22T04:56:34.989Z,6.60
2022-09-22T04:59:01.576Z,6.70
2022-09-22T05:01:28.372Z,6.70
2022-09-22T05:03:54.807Z,6.80
2022-09-22T05:06:21.038Z,6.80
2022-09-22T05:08:47.942Z,6.80
2022-09-22T05:11:14.575Z,6.80
2022-09-22T05:13:40.746Z,6.80
2022-09-22T05:16:07.864Z,7.00
2022-09-22T05:18:34.463Z,7.20
2022-09-22T05:21:01.352Z,7.40
2022-09-22T05:23:27.615Z,7.60
2022-09-22T05:25:54.227Z,7.70
2022-09-22T05:28:22.308Z,7.90
2022-09-22T05:30:51.387Z,8.00
2022-09-22T05:33:17.638Z,8.10
2022-09-22T05:35:43.850Z,8.20
2022-09-22T05:38:10.096Z,8.30
2022-09-22T05:40:36.409Z,8.40
2022-09-22T05:43:02.636Z,8.50
2022-09-22T05:45:28.903Z,8.60
2022-09-22T05:47:55.285Z,8.60
2022-09-22T05:50:24.146Z,8.70
2022-09-22T05:52:50.591Z,8.80
2022-09-22T05:55:17.243Z,8.90
2022-09-22T05:57:43.512Z,8.90
2022-09-22T06:00:11.123Z,8.80
2022-09-22T06:02:37.695Z,9.00
2022-09-22T06:05:04.246Z,9.20
2022-09-22T06:07:30.869Z,9.40
2022-09-22T06:09:57.140Z,9.50
2022-09-22T06:12:23.398Z,9.70
2022-09-22T06:14:49.693Z,9.60
2022-09-22T06:17:16.032Z,9.50
2022-09-22T06:19:42.564Z,9.60
2022-09-22T06:22:10.559Z,9.60
2022-09-22T06:24:36.774Z,9.60
2022-09-22T06:27:03.089Z,9.50
2022-09-22T06:29:30.827Z,9.30
2022-09-22T06:31:57.138Z,9.30
2022-09-22T06:34:23.508Z,9.10
2022-09-22T06:36:50.885Z,9.40
2022-09-22T06:39:18.133Z,9.30
2022-09-22T06:41:44.382Z,9.70
2022-09-22T06:44:12.351Z,9.70
2022-09-22T06:46:38.890Z,9.50
2022-09-22T06:49:05.131Z,9.70
2022-09-22T06:51:33.783Z,10.10
2022-09-22T06:54:02.352Z,10.20
2022-09-22T06:56:28.974Z,10.30
2022-09-22T06:59:09.816Z,10.50
2022-09-22T07:01:37.009Z,11.00
2022-09-22T07:04:04.115Z,11.40
2022-09-22T07:06:30.287Z,12.10
2022-09-22T07:08:56.850Z,12.00
2022-09-22T07:11:23.237Z,12.90
2022-09-22T07:13:53.610Z,15.00
2022-09-22T07:16:21.541Z,14.40
2022-09-22T07:18:49.431Z,13.70
2022-09-22T07:21:20.381Z,13.80
2022-09-22T07:23:49.222Z,14.70
2022-09-22T07:26:17.907Z,14.80
2022-09-22T07:28:45.487Z,14.30
2022-09-22T07:31:13.233Z,13.80
2022-09-22T07:33:41.654Z,13.80
2022-09-22T07:36:16.191Z,13.80
2022-09-22T07:38:43.303Z,13.80
2022-09-22T07:41:13.799Z,14.00
2022-09-22T07:43:40.547Z,14.70
2022-09-22T07:46:07.255Z,15.50
2022-09-22T07:48:41.186Z,16.60
2022-09-22T07:51:14.309Z,17.50
2022-09-22T07:53:42.743Z,19.10
2022-09-22T07:56:12.661Z,20.10
2022-09-22T07:58:46.949Z,19.70
2022-09-22T08:01:13.342Z,18.40
2022-09-22T08:03:39.951Z,18.90
2022-09-22T08:06:11.532Z,17.50
2022-09-22T08:08:39.150Z,19.00
2022-09-22T08:11:16.991Z,20.00
2022-09-22T08:13:48.328Z,20.30
2022-09-22T08:16:17.809Z,21.00
2022-09-22T08:18:44.854Z,19.00
2022-09-22T08:21:12.627Z,18.80
2022-09-22T08:23:39.786Z,16.60
2022-09-22T08:26:07.770Z,19.10
2022-09-22T08:28:34.494Z,20.10
2022-09-22T08:31:01.054Z,18.00
2022-09-22T08:33:29.353Z,16.80
2022-09-22T08:36:03.098Z,16.70
2022-09-22T08:38:30.391Z,17.60
2022-09-22T08:43:34.764Z,17.20
2022-09-22T08:46:02.731Z,18.80
2022-09-22T08:48:47.902Z,19.60
2022-09-22T08:51:39.040Z,19.00
2022-09-22T08:54:06.278Z,17.90
2022-09-22T08:56:39.684Z,18.80
2022-09-22T08:59:13.594Z,17.90
2022-09-22T09:04:35.227Z,16.70
2022-09-22T09:07:32.207Z,16.50
2022-09-22T09:12:54.737Z,16.50
2022-09-22T09:16:48.628Z,16.50
2022-09-22T09:19:41.765Z,16.50
2022-09-22T09:22:24.594Z,17.00
2022-09-22T09:25:25.388Z,17.30
2022-09-22T09:27:58.727Z,16.90
2022-09-22T09:30:25.189Z,17.50
2022-09-22T09:33:01.367Z,18.70
2022-09-22T09:35:45.066Z,18.90
2022-09-22T09:38:17.332Z,18.10
2022-09-22T09:40:53.683Z,17.90
2022-09-22T09:43:23.808Z,18.10
2022-09-22T09:48:57.982Z,18.40
2022-09-22T09:51:24.306Z,17.80
2022-09-22T09:53:52.632Z,16.70
2022-09-22T09:56:29.060Z,16.60
2022-09-22T09:59:21.339Z,17.40
2022-09-22T10:01:51.226Z,17.80
2022-09-22T10:04:34.631Z,18.40
2022-09-22T10:07:24.007Z,18.20
2022-09-22T10:09:51.723Z,16.90
2022-09-22T10:12:29.951Z,17.20
2022-09-22T10:14:59.940Z,17.10
2022-09-22T10:17:39.838Z,17.10
2022-09-22T10:20:23.636Z,17.00
2022-09-22T10:22:50.381Z,17.30
2022-09-22T10:25:25.170Z,16.60
2022-09-22T10:28:14.419Z,17.00
2022-09-22T10:30:41.211Z,17.30
2022-09-22T10:33:20.398Z,17.90
2022-09-22T10:36:12.633Z,17.50
2022-09-22T10:38:42.871Z,17.70
2022-09-22T10:41:13.955Z,17.30
2022-09-22T10:44:38.713Z,16.10
2022-09-22T10:47:27.364Z,17.10
2022-09-22T10:53:00.824Z,16.90
2022-09-22T10:58:27.590Z,17.30
2022-09-22T11:01:08.659Z,17.70
2022-09-22T11:03:57.508Z,18.00
2022-09-22T11:06:59.778Z,17.50
2022-09-22T11:10:04.627Z,17.40
2022-09-22T11:12:52.043Z,16.40
2022-09-22T11:16:02.253Z,15.80
2022-09-22T11:18:55.524Z,15.70
2022-09-22T11:21:57.752Z,17.00
2022-09-22T11:29:36.991Z,17.70
2022-09-22T11:34:27.003Z,18.20
2022-09-22T11:43:46.913Z,16.40
2022-09-22T11:48:05.767Z,17.70
2022-09-22T11:54:19.762Z,17.20
2022-09-22T11:56:59.917Z,16.50
2022-09-22T12:00:16.849Z,17.70
2022-09-22T12:03:03.081Z,18.40
2022-09-22T12:05:47.467Z,18.90
2022-09-22T12:08:20.483Z,19.00
2022-09-22T12:10:47.708Z,19.50
2022-09-22T12:13:17.879Z,19.80
2022-09-22T12:16:42.472Z,19.70
2022-09-22T12:23:34.178Z,18.80
2022-09-22T12:26:09.006Z,18.70
2022-09-22T12:28:47.628Z,18.50
2022-09-22T12:31:15.862Z,19.30
2022-09-22T12:33:55.217Z,19.50
2022-09-22T12:36:35.571Z,19.80
2022-09-22T12:39:13.582Z,20.10
2022-09-22T12:41:59.575Z,17.30
2022-09-22T12:44:29.197Z,17.30
2022-09-22T12:47:02.373Z,17.30
2022-09-22T12:49:29.977Z,17.40
2022-09-22T12:51:56.304Z,17.40
2022-09-22T12:54:37.308Z,17.20
2022-09-22T12:57:26.608Z,17.70
2022-09-22T13:00:10.572Z,17.80
2022-09-22T13:02:44.038Z,18.70
2022-09-22T13:06:40.747Z,17.50
2022-09-22T13:09:09.414Z,17.80
2022-09-22T13:12:22.778Z,17.80
2022-09-22T13:15:15.728Z,18.10
2022-09-22T13:17:47.217Z,17.70
2022-09-22T13:20:15.725Z,17.60
2022-09-22T13:22:43.553Z,17.60
2022-09-22T13:25:43.631Z,17.80
2022-09-22T13:28:16.371Z,17.80
2022-09-22T13:30:43.732Z,18.30
2022-09-22T13:33:25.456Z,18.00
2022-09-22T13:36:05.919Z,18.40
2022-09-22T13:38:36.855Z,18.10
2022-09-22T13:41:04.097Z,18.30
2022-09-22T13:43:34.968Z,18.30
2022-09-22T13:46:01.634Z,18.00
2022-09-22T13:48:31.896Z,17.50
2022-09-22T13:51:04.547Z,17.80
2022-09-22T13:53:32.199Z,17.70
2022-09-22T13:55:58.572Z,18.00
2022-09-22T13:58:38.623Z,18.30
2022-09-22T14:01:19.402Z,18.00
2022-09-22T14:03:46.299Z,17.60
2022-09-22T14:06:15.988Z,18.30
2022-09-22T14:08:42.702Z,18.90
2022-09-22T14:11:16.089Z,18.70
2022-09-22T14:13:59.374Z,19.00
2022-09-22T14:17:27.199Z,18.60
2022-09-22T14:19:58.603Z,18.60
2022-09-22T14:22:30.247Z,19.10
2022-09-22T14:24:59.399Z,18.70
2022-09-22T14:27:31.920Z,18.20
2022-09-22T14:29:59.087Z,18.60
2022-09-22T14:32:43.926Z,18.20
2022-09-22T14:35:28.087Z,19.80
2022-09-22T14:37:57.018Z,18.10
2022-09-22T14:40:27.993Z,17.90
2022-09-22T14:42:58.317Z,17.70
2022-09-22T14:45:27.826Z,17.80
2022-09-22T14:48:17.873Z,17.80
2022-09-22T14:50:58.707Z,17.60
2022-09-22T14:53:40.780Z,17.60
2022-09-22T14:56:11.213Z,17.80
2022-09-22T14:58:40.657Z,17.80
2022-09-22T15:01:41.923Z,17.20
2022-09-22T15:04:18.287Z,17.10
2022-09-22T15:06:49.963Z,17.20
2022-09-22T15:09:34.449Z,17.20
2022-09-22T15:12:03.586Z,16.60
2022-09-22T15:15:14.769Z,16.40
2022-09-22T15:18:01.207Z,16.30
2022-09-22T15:20:40.546Z,16.20
2022-09-22T15:23:38.967Z,16.20
2022-09-22T15:26:05.611Z,16.20
2022-09-22T15:28:37.284Z,16.10
2022-09-22T15:31:05.939Z,16.20
2022-09-22T15:33:32.520Z,16.10
2022-09-22T15:36:13.100Z,16.20
2022-09-22T15:38:39.636Z,16.10
2022-09-22T15:41:06.293Z,16.10
2022-09-22T15:43:33.109Z,16.20
2022-09-22T15:46:01.337Z,16.10
2022-09-22T15:48:32.552Z,16.00
2022-09-22T15:51:00.622Z,16.00
2022-09-22T15:53:27.949Z,16.00
2022-09-22T15:55:54.241Z,16.00
2022-09-22T15:58:22.770Z,15.90
2022-09-22T16:00:52.751Z,15.80
2022-09-22T16:03:24.900Z,15.70
2022-09-22T16:05:56.496Z,15.70
2022-09-22T16:08:34.031Z,17.40
2022-09-22T16:11:04.634Z,15.60
2022-09-22T16:13:34.220Z,15.50
2022-09-22T16:16:02.867Z,15.30
2022-09-22T16:18:33.633Z,15.10
2022-09-22T16:21:07.090Z,15.00
2022-09-22T16:23:33.591Z,14.80
2022-09-22T16:25:59.829Z,14.50
2022-09-22T16:28:26.135Z,14.40
2022-09-22T16:30:54.830Z,14.30
2022-09-22T16:33:21.183Z,14.20
2022-09-22T16:35:47.585Z,14.20
2022-09-22T16:38:13.856Z,14.00
2022-09-22T16:40:40.392Z,13.70
2022-09-22T16:43:08.519Z,13.60
2022-09-22T16:45:53.395Z,13.40
2022-09-22T16:48:19.930Z,13.20
2022-09-22T16:50:46.462Z,13.00
2022-09-22T16:53:13.875Z,12.80
2022-09-22T16:55:47.715Z,12.70
2022-09-22T16:58:14.362Z,12.50
2022-09-22T17:00:42.666Z,12.30
2022-09-22T17:03:10.085Z,12.10
2022-09-22T17:05:39.585Z,11.90
2022-09-22T17:08:07.756Z,11.60
2022-09-22T17:10:35.212Z,11.50
2022-09-22T17:13:04.882Z,11.40
2022-09-22T17:15:35.151Z,11.60
2022-09-22T17:18:03.150Z,11.10
2022-09-22T17:20:33.035Z,10.90
2022-09-22T17:22:59.692Z,10.70
2022-09-22T17:25:28.655Z,10.60
2022-09-22T17:27:55.805Z,10.40
2022-09-22T17:30:22.759Z,10.30
2022-09-22T17:32:49.796Z,10.20
2022-09-22T17:35:16.735Z,10.10
2022-09-22T17:37:43.172Z,9.90
2022-09-22T17:40:11.315Z,9.80
2022-09-22T17:42:37.787Z,9.70
2022-09-22T17:45:07.409Z,9.60
2022-09-22T17:47:53.020Z,9.40
2022-09-22T17:50:37.848Z,9.30
2022-09-22T17:53:23.335Z,9.20
2022-09-22T17:55:51.683Z,10.30
2022-09-22T17:58:18.928Z,9.00
2022-09-22T18:00:47.227Z,8.90
2022-09-22T18:03:15.122Z,8.80
2022-09-22T18:05:44.880Z,8.70
2022-09-22T18:08:11.626Z,8.70
2022-09-22T18:10:38.335Z,8.60
2022-09-22T18:13:06.470Z,8.50
2022-09-22T18:15:33.807Z,8.50
2022-09-22T18:18:00.417Z,8.50
2022-09-22T18:20:27.153Z,8.40
2022-09-22T18:22:54.204Z,8.40
2022-09-22T18:25:23.599Z,8.30
2022-09-22T18:27:50.543Z,8.20
2022-09-22T18:30:19.377Z,8.20
2022-09-22T18:32:50.113Z,8.10
2022-09-22T18:35:16.826Z,8.10
2022-09-22T18:37:43.385Z,8.10
2022-09-22T18:40:11.797Z,8.00
2022-09-22T18:42:38.712Z,8.00
2022-09-22T18:45:06.793Z,8.00
2022-09-22T18:47:39.727Z,7.90
2022-09-22T18:50:07.298Z,7.80
2022-09-22T18:52:34.121Z,7.80
2022-09-22T18:55:00.862Z,7.70
2022-09-22T18:57:29.444Z,7.70
2022-09-22T18:59:59.358Z,7.70
2022-09-22T19:02:26.862Z,7.70
2022-09-22T19:04:53.451Z,7.70
2022-09-22T19:07:41.994Z,7.60
2022-09-22T19:10:12.704Z,7.60
2022-09-22T19:12:39.899Z,7.50
2022-09-22T19:15:14.625Z,7.40
2022-09-22T19:17:43.411Z,7.60
2022-09-22T19:20:13.237Z,7.50
2022-09-22T19:22:41.069Z,7.50
2022-09-22T19:25:08.280Z,7.40
2022-09-22T19:27:34.756Z,7.40
2022-09-22T19:30:01.733Z,7.50
2022-09-22T19:32:28.924Z,7.50
2022-09-22T19:34:56.412Z,7.50
2022-09-22T19:37:24.243Z,7.30
2022-09-22T19:39:50.497Z,7.30
2022-09-22T19:42:18.116Z,7.20
2022-09-22T19:44:44.472Z,7.20
2022-09-22T19:47:10.697Z,7.10
2022-09-22T19:49:37.158Z,7.10
2022-09-22T19:52:07.488Z,7.00
2022-09-22T19:54:34.289Z,7.00
2022-09-22T19:57:00.664Z,7.00
2022-09-22T19:59:27.151Z,6.90
2022-09-22T20:01:54.933Z,6.90
2022-09-22T20:04:23.021Z,6.90
2022-09-22T20:06:49.366Z,6.90
2022-09-22T20:09:16.772Z,6.90
2022-09-22T20:11:47.856Z,6.80
2022-09-22T20:14:21.861Z,6.90
2022-09-22T20:16:53.353Z,6.80
2022-09-22T20:19:21.608Z,6.80
2022-09-22T20:21:49.053Z,6.70
2022-09-22T20:24:17.494Z,6.70
2022-09-22T20:26:44.601Z,6.70
2022-09-22T20:29:11.248Z,6.70
2022-09-22T20:31:37.566Z,6.60
2022-09-22T20:34:05.088Z,6.60
2022-09-22T20:36:36.506Z,6.60
2022-09-22T20:39:04.829Z,6.50
2022-09-22T20:41:32.009Z,6.50
2022-09-22T20:43:58.249Z,6.60
2022-09-22T20:46:25.075Z,6.60
2022-09-22T20:48:54.678Z,6.60
2022-09-22T20:51:21.188Z,6.60
2022-09-22T20:53:47.827Z,6.60
2022-09-22T20:56:15.893Z,6.60
2022-09-22T20:58:43.668Z,6.50
2022-09-22T21:01:11.474Z,6.50
2022-09-22T21:03:38.957Z,6.40
2022-09-22T21:06:07.142Z,6.40
2022-09-22T21:08:54.649Z,6.40
2022-09-22T21:11:21.913Z,6.40
2022-09-22T21:13:55.982Z,6.40
2022-09-22T21:16:22.464Z,6.40
2022-09-22T21:18:51.043Z,6.30
2022-09-22T21:21:18.570Z,6.30
2022-09-22T21:23:45.070Z,6.20
2022-09-22T21:26:12.279Z,6.30
2022-09-22T21:28:38.502Z,6.30
2022-09-22T21:31:08.511Z,6.20
2022-09-22T21:33:35.147Z,6.20
2022-09-22T21:36:15.411Z,6.20
2022-09-22T21:38:42.752Z,6.10
2022-09-22T21:41:11.244Z,6.10
2022-09-22T21:43:37.570Z,6.10
2022-09-22T21:46:05.774Z,6.10
2022-09-22T21:48:33.235Z,6.10
2022-09-22T21:51:01.722Z,6.10
2022-09-22T21:53:28.322Z,6.10
2022-09-22T21:56:19.356Z,6.00
2022-09-22T21:58:47.309Z,6.00
2022-09-22T22:01:36.548Z,6.00
2022-09-22T22:04:07.057Z,6.00
2022-09-22T22:06:39.626Z,6.00
2022-09-22T22:09:19.203Z,6.00
2022-09-22T22:11:53.424Z,6.00
2022-09-22T22:14:19.768Z,5.90
2022-09-22T22:16:47.528Z,5.90
2022-09-22T22:19:19.545Z,5.90
2022-09-22T22:21:46.980Z,6.00
2022-09-22T22:24:56.623Z,5.90
2022-09-22T22:27:22.948Z,5.90
2022-09-22T22:29:50.899Z,5.90
2022-09-22T22:32:17.247Z,6.00
2022-09-22T22:34:43.519Z,6.00
2022-09-22T22:37:10.600Z,6.00
2022-09-22T22:39:38.481Z,6.00
2022-09-22T22:42:06.804Z,6.10
2022-09-22T22:44:34.588Z,6.10
2022-09-22T22:47:00.894Z,6.00
2022-09-22T22:49:27.640Z,6.00
2022-09-22T22:51:53.831Z,6.00
2022-09-22T22:54:20.215Z,6.00
2022-09-22T22:56:50.782Z,6.00
2022-09-22T22:59:17.793Z,6.00
2022-09-22T23:01:44.169Z,6.10
2022-09-22T23:04:10.958Z,6.10
2022-09-22T23:06:38.919Z,6.10
2022-09-22T23:09:06.741Z,6.00
2022-09-22T23:11:37.090Z,6.10
2022-09-22T23:14:04.799Z,6.20
2022-09-22T23:16:33.187Z,6.10
2022-09-22T23:19:01.179Z,6.10
2022-09-22T23:21:27.628Z,6.00
2022-09-22T23:23:54.402Z,5.90
2022-09-22T23:26:20.700Z,5.90
2022-09-22T23:28:48.200Z,5.80
2022-09-22T23:31:21.611Z,5.80
2022-09-22T23:33:49.000Z,5.80
2022-09-22T23:36:19.783Z,5.90
2022-09-22T23:38:48.648Z,5.80
2022-09-22T23:41:14.954Z,5.80
2022-09-22T23:43:41.171Z,5.80
2022-09-22T23:46:08.382Z,5.90
2022-09-22T23:48:35.042Z,5.80
2022-09-22T23:51:01.501Z,5.80
2022-09-22T23:53:38.111Z,5.80
2022-09-22T23:56:05.129Z,5.70
2022-09-22T23:58:31.932Z,5.60
